Airfield :
LOGIN :

Register | Disclaimer

   EN    FR    IT 

 










Legend :    VFR   Marginal VFR   IFR   Intensive IFR   Very Intensive IFR
Visi :
Ceiling :
>= 8 km
>= 3000ft
5 to 8 km
1000 to 3000 ft
1500m to 5 km
500 to 1000 ft
800 to 1500m
200 to 500 ft
< 800m
< 200 ft
Symbols :   Thunderstorms  Fog  Heavy snow  Heavy precipitations  Wind > 20 kt
SIGMETs :     Misc.  Thunderstorms  Icing  Turbulence  Mountain Waves  Volcanic Ashes






- Airport Elevation : 768 ft
- IATA code : MXP


LIMC - Milano Malpensa

CURRENT METAR :
  • 131050Z 04004KT 3000 -RASN BR FEW004 BKN025 01/01 Q0990 R35R/29//95 R35L/29//95 NOSIG

EXPIRED METARs :
  • 131020Z 02005KT 350V070 1200 R35R/1300U R17L/1100N R35L/1300N -SNPL BR BKN003 OVC010 01/01 Q0991 R35L/29//95 R35R/29//95 NOSIG
  • 130950Z 01004KT 0800 R35R/1200D R17L/1100N R35L/1200D -SN FG BKN003 OVC008 01/01 Q0991 NOSIG
  • 130920Z 01004KT 1000 R35R/1400D R17L/1400D R35L/1400N -RASN BR BKN003 OVC010 01/01 Q0991 RESN NOSIG
  • 130850Z 02005KT 1000 R35R/1400D R17L/P1500N R35L/1400D SN BR BKN003 OVC011 01/01 Q0991 NOSIG
  • 130820Z 09006KT 1000 R35R/P1500N R17L/P1500U R35L/P1500N -SN BR BKN002 OVC011 01/01 Q0991 R35R/29//95 R35L/29//95 NOSIG

TAF TAF LIMC
Valid from the 13 at 06:00 until the 14 at 12:00 UTC


130500Z 1306/1412 VRB05KT 1000 SN OVC010
BECMG 1312/1314 35010KT 7000 SCT030 SCT070



MET'MAP, your aeronautical weather chart ! - Copyright ORBIFLY December 2007 - Disclaimer

ORBIFLY MET'MAP TEAM :

Programming & Development : Alexandra Zaïnal
Concept & original design : Baudouin d'Aumeries
Assistance for programming : Marc-Olivier Méhu
Technical & hardware support : Manuel Goepfert

Contact : metmap@orbifly.com




SOURCES & CREDITS :

   NOAA